createdAt,value
2022-11-17T00:02:16.938Z,95299.09
2022-11-17T00:04:43.228Z,95293.66
2022-11-17T00:07:09.531Z,95289.25
2022-11-17T00:09:35.793Z,95281.50
2022-11-17T00:12:02.043Z,95280.72
2022-11-17T00:14:28.285Z,95272.69
2022-11-17T00:16:54.532Z,95242.13
2022-11-17T00:19:20.867Z,95256.41
2022-11-17T00:21:47.139Z,95236.44
2022-11-17T00:24:13.382Z,95238.16
2022-11-17T00:26:39.722Z,95231.09
2022-11-17T00:29:06.002Z,95226.03
2022-11-17T00:31:32.322Z,95221.97
2022-11-17T00:33:58.584Z,95219.59
2022-11-17T00:36:24.841Z,95215.25
2022-11-17T00:38:51.106Z,95202.50
2022-11-17T00:41:17.341Z,95202.50
2022-11-17T00:43:43.587Z,95198.16
2022-11-17T00:46:09.834Z,95196.56
2022-11-17T00:48:36.075Z,95207.38
2022-11-17T00:51:02.309Z,95212.84
2022-11-17T00:53:28.563Z,95207.41
2022-11-17T00:55:54.824Z,95214.56
2022-11-17T00:58:21.072Z,95208.78
2022-11-17T01:00:47.336Z,95215.25
2022-11-17T01:03:13.697Z,95191.63
2022-11-17T01:05:39.943Z,95182.97
2022-11-17T01:08:06.174Z,95188.81
2022-11-17T01:10:32.459Z,95194.97
2022-11-17T01:12:58.706Z,95210.78
2022-11-17T01:15:24.944Z,95237.09
2022-11-17T01:17:51.208Z,95235.41
2022-11-17T01:20:17.445Z,95232.91
2022-11-17T01:22:43.691Z,95232.44
2022-11-17T01:25:09.949Z,95227.97
2022-11-17T01:27:36.196Z,95215.03
2022-11-17T01:30:02.439Z,95217.31
2022-11-17T01:32:28.660Z,95218.72
2022-11-17T01:34:54.904Z,95226.75
2022-11-17T01:37:21.169Z,95225.38
2022-11-17T01:39:47.416Z,95221.59
2022-11-17T01:42:13.665Z,95244.53
2022-11-17T01:44:39.904Z,95241.84
2022-11-17T01:47:06.135Z,95235.91
2022-11-17T01:49:32.412Z,95237.38
2022-11-17T01:51:58.670Z,95234.81
2022-11-17T01:54:24.898Z,95233.69
2022-11-17T01:56:51.139Z,95243.41
2022-11-17T01:59:17.395Z,95238.44
2022-11-17T02:01:43.658Z,95244.25
2022-11-17T02:04:09.909Z,95237.09
2022-11-17T02:06:36.144Z,95246.09
2022-11-17T02:09:02.401Z,95242.72
2022-11-17T02:11:28.644Z,95224.72
2022-11-17T02:13:54.874Z,95222.00
2022-11-17T02:16:21.132Z,95211.78
2022-11-17T02:18:47.465Z,95210.06
2022-11-17T02:21:13.737Z,95207.31
2022-11-17T02:23:39.997Z,95208.56
2022-11-17T02:26:06.252Z,95203.56
2022-11-17T02:28:32.493Z,95203.75
2022-11-17T02:30:58.721Z,95203.13
2022-11-17T02:33:24.965Z,95203.59
2022-11-17T02:35:51.206Z,95185.91
2022-11-17T02:38:17.441Z,95177.22
2022-11-17T02:40:43.674Z,95184.25
2022-11-17T02:43:09.913Z,95184.75
2022-11-17T02:45:36.157Z,95176.22
2022-11-17T02:48:02.452Z,95177.53
2022-11-17T02:50:28.805Z,95182.28
2022-11-17T02:52:55.125Z,95194.41
2022-11-17T02:55:21.368Z,95191.72
2022-11-17T02:57:47.624Z,95181.38
2022-11-17T03:00:13.859Z,95195.84
2022-11-17T03:02:40.107Z,95214.38
2022-11-17T03:05:06.341Z,95201.84
2022-11-17T03:07:32.687Z,95201.84
2022-11-17T03:09:59.081Z,95192.72
2022-11-17T03:12:25.429Z,95210.25
2022-11-17T03:14:51.663Z,95196.41
2022-11-17T03:17:17.906Z,95216.00
2022-11-17T03:19:44.155Z,95193.72
2022-11-17T03:22:10.407Z,95194.13
2022-11-17T03:24:36.674Z,95187.00
2022-11-17T03:27:02.932Z,95192.88
2022-11-17T03:29:29.203Z,95197.66
2022-11-17T03:31:55.474Z,95206.97
2022-11-17T03:34:21.721Z,95217.31
2022-11-17T03:36:47.963Z,95210.44
2022-11-17T03:39:14.205Z,95209.16
2022-11-17T03:41:40.475Z,95204.22
2022-11-17T03:44:06.720Z,95205.25
2022-11-17T03:46:32.964Z,95191.56
2022-11-17T03:48:59.220Z,95198.44
2022-11-17T03:51:25.452Z,95196.97
2022-11-17T03:53:51.714Z,95202.91
2022-11-17T03:56:18.050Z,95194.75
2022-11-17T03:58:44.293Z,95202.13
2022-11-17T04:01:10.638Z,95187.53
2022-11-17T04:03:37.400Z,95184.66
2022-11-17T04:06:03.995Z,95207.09
2022-11-17T04:08:30.247Z,95216.31
2022-11-17T04:10:56.523Z,95210.44
2022-11-17T04:13:22.764Z,95212.63
2022-11-17T04:15:49.019Z,95199.81
2022-11-17T04:18:15.254Z,95208.84
2022-11-17T04:20:41.500Z,95206.28
2022-11-17T04:23:07.732Z,95212.25
2022-11-17T04:25:34.029Z,95211.94
2022-11-17T04:28:00.269Z,95214.13
2022-11-17T04:30:26.523Z,95218.06
2022-11-17T04:32:52.794Z,95222.75
2022-11-17T04:35:19.047Z,95213.34
2022-11-17T04:37:45.274Z,95209.75
2022-11-17T04:40:11.544Z,95212.34
2022-11-17T04:42:37.868Z,95203.72
2022-11-17T04:45:04.101Z,95204.81
2022-11-17T04:47:30.343Z,95208.28
2022-11-17T04:49:56.606Z,95207.00
2022-11-17T04:52:26.925Z,95196.28
2022-11-17T04:54:55.950Z,95191.13
2022-11-17T04:57:22.193Z,95193.09
2022-11-17T04:59:48.457Z,95186.94
2022-11-17T05:02:14.795Z,95184.66
2022-11-17T05:04:41.126Z,95182.88
2022-11-17T05:07:07.375Z,95177.81
2022-11-17T05:09:33.625Z,95174.34
2022-11-17T05:11:59.903Z,95176.63
2022-11-17T05:14:26.149Z,95172.75
2022-11-17T05:16:52.379Z,95176.22
2022-11-17T05:19:18.612Z,95171.56
2022-11-17T05:21:44.851Z,95171.84
2022-11-17T05:24:12.198Z,95163.72
2022-11-17T05:26:38.456Z,95173.84
2022-11-17T05:29:04.713Z,95181.50
2022-11-17T05:31:30.965Z,95181.88
2022-11-17T05:33:57.205Z,95198.66
2022-11-17T05:36:23.451Z,95187.53
2022-11-17T05:38:49.689Z,95189.94
2022-11-17T05:41:15.943Z,95203.22
2022-11-17T05:43:42.296Z,95186.56
2022-11-17T05:46:08.521Z,95214.94
2022-11-17T05:48:34.812Z,95195.97
2022-11-17T05:51:01.071Z,95204.41
2022-11-17T05:53:27.329Z,95213.84
2022-11-17T05:55:53.566Z,95209.19
2022-11-17T05:58:19.830Z,95212.75
2022-11-17T06:00:46.092Z,95206.59
2022-11-17T06:03:12.340Z,95208.97
2022-11-17T06:05:38.637Z,95235.06
2022-11-17T06:08:04.876Z,95241.31
2022-11-17T06:10:31.121Z,95224.56
2022-11-17T06:12:57.384Z,95222.41
2022-11-17T06:15:23.639Z,95224.78
2022-11-17T06:17:49.876Z,95214.34
2022-11-17T06:20:16.121Z,95238.88
2022-11-17T06:22:48.038Z,95240.16
2022-11-17T06:25:14.686Z,95240.25
2022-11-17T06:27:40.927Z,95244.63
2022-11-17T06:30:07.387Z,95256.84
2022-11-17T06:32:33.667Z,95258.34
2022-11-17T06:34:59.915Z,95252.09
2022-11-17T06:37:26.161Z,95258.25
2022-11-17T06:39:52.464Z,95273.66
2022-11-17T06:42:18.773Z,95278.81
2022-11-17T06:44:45.028Z,95281.31
2022-11-17T06:47:11.281Z,95277.75
2022-11-17T06:49:37.578Z,95280.72
2022-11-17T06:52:03.822Z,95285.50
2022-11-17T06:54:30.168Z,95301.09
2022-11-17T06:56:56.537Z,95289.25
2022-11-17T06:59:22.858Z,95291.94
2022-11-17T07:01:49.161Z,95293.94
2022-11-17T07:04:15.497Z,95304.56
2022-11-17T07:06:41.829Z,95312.41
2022-11-17T07:09:08.164Z,95305.84
2022-11-17T07:11:34.498Z,95320.06
2022-11-17T07:14:00.840Z,95334.56
2022-11-17T07:16:27.138Z,95324.63
2022-11-17T07:18:53.501Z,95333.97
2022-11-17T07:21:19.866Z,95334.66
2022-11-17T07:23:46.272Z,95337.53
2022-11-17T07:26:12.636Z,95339.25
2022-11-17T07:28:39.157Z,95335.19
2022-11-17T07:31:05.598Z,95327.63
2022-11-17T07:33:31.929Z,95337.97
2022-11-17T07:35:58.350Z,95334.88
2022-11-17T07:38:24.659Z,95336.19
2022-11-17T07:40:50.990Z,95337.56
2022-11-17T07:43:17.283Z,95331.50
2022-11-17T07:45:43.693Z,95329.63
2022-11-17T07:48:10.028Z,95334.97
2022-11-17T07:50:36.318Z,95331.31
2022-11-17T07:53:02.685Z,95331.50
2022-11-17T07:55:29.013Z,95324.53
2022-11-17T07:57:55.358Z,95317.69
2022-11-17T08:00:21.732Z,95327.41
2022-11-17T08:02:48.030Z,95333.69
2022-11-17T08:05:14.306Z,95336.97
2022-11-17T08:07:40.625Z,95331.50
2022-11-17T08:10:06.959Z,95338.25
2022-11-17T08:12:33.287Z,95346.78
2022-11-17T08:14:59.579Z,95340.53
2022-11-17T08:17:25.914Z,95337.84
2022-11-17T08:19:52.226Z,95334.56
2022-11-17T08:22:18.622Z,95325.13
2022-11-17T08:24:44.919Z,95328.81
2022-11-17T08:27:11.267Z,95325.25
2022-11-17T08:29:37.608Z,95316.31
2022-11-17T08:32:03.994Z,95312.53
2022-11-17T08:34:30.344Z,95325.63
2022-11-17T08:36:56.709Z,95322.75
2022-11-17T08:39:23.008Z,95306.63
2022-11-17T08:41:49.302Z,95325.13
2022-11-17T08:44:15.600Z,95332.78
2022-11-17T08:46:41.877Z,95332.50
2022-11-17T08:49:08.185Z,95332.09
2022-11-17T08:51:34.523Z,95330.31
2022-11-17T08:54:00.828Z,95323.06
2022-11-17T08:56:27.385Z,95333.88
2022-11-17T08:58:53.714Z,95336.28
2022-11-17T09:01:20.026Z,95337.66
2022-11-17T09:03:46.353Z,95350.28
2022-11-17T09:06:12.648Z,95336.28
2022-11-17T09:08:45.596Z,95326.81
2022-11-17T09:11:22.389Z,95328.41
2022-11-17T09:13:48.719Z,95344.50
2022-11-17T09:16:14.961Z,95344.81
2022-11-17T09:18:41.646Z,95337.47
2022-11-17T09:21:08.082Z,95338.94
2022-11-17T09:23:34.940Z,95358.53
2022-11-17T09:26:01.484Z,95361.00
2022-11-17T09:28:27.735Z,95359.03
2022-11-17T09:30:54.135Z,95366.78
2022-11-17T09:33:20.536Z,95362.31
2022-11-17T09:35:46.820Z,95363.19
2022-11-17T09:38:13.102Z,95361.91
2022-11-17T09:40:39.389Z,95356.63
2022-11-17T09:43:05.663Z,95362.59
2022-11-17T09:45:31.935Z,95348.06
2022-11-17T09:48:12.403Z,95347.06
2022-11-17T09:50:44.444Z,95340.38
2022-11-17T09:53:10.781Z,95342.53
2022-11-17T09:55:37.060Z,95326.78
2022-11-17T09:58:03.567Z,95323.38
2022-11-17T10:00:29.875Z,95324.06
2022-11-17T10:02:56.142Z,95332.91
2022-11-17T10:05:22.523Z,95325.94
2022-11-17T10:07:48.783Z,95326.13
2022-11-17T10:10:15.044Z,95328.41
2022-11-17T10:12:41.318Z,95316.00
2022-11-17T10:15:07.589Z,95311.09
2022-11-17T10:17:33.870Z,95316.53
2022-11-17T10:20:00.153Z,95316.34
2022-11-17T10:22:26.427Z,95310.06
2022-11-17T10:24:52.715Z,95303.34
2022-11-17T10:27:18.993Z,95308.31
2022-11-17T10:29:45.279Z,95309.09
2022-11-17T10:32:11.550Z,95302.38
2022-11-17T10:34:41.393Z,95299.66
2022-11-17T10:37:08.050Z,95298.66
2022-11-17T10:39:34.322Z,95292.66
2022-11-17T10:42:00.605Z,95292.97
2022-11-17T10:44:26.847Z,95299.44
2022-11-17T10:46:56.434Z,95283.78
2022-11-17T10:49:25.275Z,95284.72
2022-11-17T10:51:51.524Z,95281.28
2022-11-17T10:54:17.807Z,95284.38
2022-11-17T10:56:44.121Z,95283.22
2022-11-17T10:59:10.387Z,95289.28
2022-11-17T11:01:36.759Z,95282.38
2022-11-17T11:04:03.061Z,95286.00
2022-11-17T11:06:29.331Z,95292.22
2022-11-17T11:08:55.800Z,95300.16
2022-11-17T11:11:22.132Z,95291.16
2022-11-17T11:13:48.396Z,95298.25
2022-11-17T11:16:14.645Z,95298.16
2022-11-17T11:18:40.972Z,95309.09
2022-11-17T11:21:07.236Z,95283.41
2022-11-17T11:23:33.614Z,95278.91
2022-11-17T11:25:59.887Z,95264.56
2022-11-17T11:28:26.152Z,95259.38
2022-11-17T11:30:52.409Z,95266.47
2022-11-17T11:33:18.668Z,95257.00
2022-11-17T11:35:44.928Z,95252.47
2022-11-17T11:38:11.212Z,95238.28
2022-11-17T11:40:37.475Z,95237.19
2022-11-17T11:43:03.751Z,95228.69
2022-11-17T11:45:30.027Z,95220.75
2022-11-17T11:47:56.352Z,95222.34
2022-11-17T11:50:22.638Z,95221.13
2022-11-17T11:52:48.896Z,95224.59
2022-11-17T11:55:15.176Z,95219.16
2022-11-17T11:57:41.460Z,95220.63
2022-11-17T12:00:07.769Z,95231.94
2022-11-17T12:02:34.137Z,95231.28
2022-11-17T12:05:00.489Z,95229.03
2022-11-17T12:07:26.835Z,95223.41
2022-11-17T12:09:53.120Z,95207.94
2022-11-17T12:12:19.387Z,95214.09
2022-11-17T12:14:45.663Z,95219.84
2022-11-17T12:17:11.943Z,95217.44
2022-11-17T12:19:38.314Z,95218.25
2022-11-17T12:22:04.586Z,95232.19
2022-11-17T12:24:30.859Z,95241.53
2022-11-17T12:26:57.129Z,95230.94
2022-11-17T12:29:23.454Z,95249.72
2022-11-17T12:31:49.778Z,95254.91
2022-11-17T12:34:16.103Z,95261.63
2022-11-17T12:36:42.363Z,95244.59
2022-11-17T12:39:08.649Z,95226.69
2022-11-17T12:41:34.934Z,95238.59
2022-11-17T12:44:01.218Z,95239.59
2022-11-17T12:46:27.654Z,95239.97
2022-11-17T12:48:54.075Z,95236.03
2022-11-17T12:51:20.419Z,95239.69
2022-11-17T12:53:46.797Z,95260.78
2022-11-17T12:56:13.115Z,95276.66
2022-11-17T12:58:39.375Z,95243.94
2022-11-17T13:01:05.720Z,95238.97
2022-11-17T13:03:31.995Z,95233.53
2022-11-17T13:06:20.305Z,95228.38
2022-11-17T13:08:44.574Z,95235.09
2022-11-17T13:11:10.843Z,95240.34
2022-11-17T13:13:38.216Z,95235.56
2022-11-17T13:16:06.561Z,95232.38
2022-11-17T13:18:32.803Z,95229.06
2022-11-17T13:20:59.056Z,95222.44
2022-11-17T13:23:25.355Z,95211.88
2022-11-17T13:25:51.613Z,95221.91
2022-11-17T13:28:17.903Z,95210.53
2022-11-17T13:30:44.153Z,95213.22
2022-11-17T13:33:10.396Z,95217.19
2022-11-17T13:35:36.758Z,95217.69
2022-11-17T13:38:03.035Z,95213.09
2022-11-17T13:40:29.288Z,95219.44
2022-11-17T13:42:55.562Z,95209.91
2022-11-17T13:45:21.824Z,95196.63
2022-11-17T13:47:48.106Z,95196.25
2022-11-17T13:50:14.361Z,95187.66
2022-11-17T13:52:46.513Z,95187.66
2022-11-17T13:55:13.276Z,95185.88
2022-11-17T13:57:39.540Z,95178.06
2022-11-17T14:00:08.535Z,95170.06
2022-11-17T14:02:34.824Z,95173.34
2022-11-17T14:05:01.129Z,95163.09
2022-11-17T14:07:27.469Z,95169.19
2022-11-17T14:09:53.789Z,95166.56
2022-11-17T14:12:20.112Z,95165.09
2022-11-17T14:14:46.387Z,95158.25
2022-11-17T14:17:12.656Z,95154.50
2022-11-17T14:19:38.962Z,95148.59
2022-11-17T14:22:05.261Z,95145.41
2022-11-17T14:24:31.527Z,95138.44
2022-11-17T14:26:57.782Z,95135.94
2022-11-17T14:29:24.112Z,95130.66
2022-11-17T14:31:50.403Z,95122.47
2022-11-17T14:34:17.312Z,95126.38
2022-11-17T14:36:43.956Z,95121.50
2022-11-17T14:39:10.251Z,95119.56
2022-11-17T14:41:36.561Z,95105.16
2022-11-17T14:44:02.843Z,95108.91
2022-11-17T14:46:29.133Z,95109.59
2022-11-17T14:48:55.438Z,95101.44
2022-11-17T14:51:21.777Z,95100.00
2022-11-17T14:53:48.083Z,95085.22
2022-11-17T14:56:14.331Z,95095.53
2022-11-17T14:58:40.585Z,95080.84
2022-11-17T15:01:06.908Z,95070.06
2022-11-17T15:03:33.271Z,95069.13
2022-11-17T15:05:59.653Z,95061.59
2022-11-17T15:08:26.053Z,95060.13
2022-11-17T15:10:52.336Z,95048.34
2022-11-17T15:13:18.784Z,95040.84
2022-11-17T15:15:45.079Z,95039.53
2022-11-17T15:18:11.434Z,95032.81
2022-11-17T15:20:37.731Z,95031.25
2022-11-17T15:23:04.019Z,95025.19
2022-11-17T15:25:30.274Z,95023.53
2022-11-17T15:27:56.543Z,95018.47
2022-11-17T15:30:22.809Z,95007.78
2022-11-17T15:32:49.093Z,95013.84
2022-11-17T15:35:15.350Z,95014.50
2022-11-17T15:37:41.619Z,95007.25
2022-11-17T15:40:07.873Z,95012.00
2022-11-17T15:42:34.171Z,95008.03
2022-11-17T15:45:00.461Z,94995.88
2022-11-17T15:47:26.732Z,95003.28
2022-11-17T15:49:53.023Z,94997.97
2022-11-17T15:52:25.736Z,94992.88
2022-11-17T15:55:05.518Z,94990.75
2022-11-17T15:57:31.797Z,94984.88
2022-11-17T15:59:58.081Z,94990.41
2022-11-17T16:02:24.366Z,94994.69
2022-11-17T16:04:50.667Z,94983.34
2022-11-17T16:07:17.019Z,94993.06
2022-11-17T16:09:47.541Z,94992.16
2022-11-17T16:12:16.648Z,94993.91
2022-11-17T16:14:42.998Z,94992.31
2022-11-17T16:17:09.255Z,94988.84
2022-11-17T16:19:35.535Z,94989.53
2022-11-17T16:22:01.899Z,94983.28
2022-11-17T16:24:28.223Z,94987.22
2022-11-17T16:26:54.507Z,94975.06
2022-11-17T16:29:20.762Z,94978.44
2022-11-17T16:31:47.030Z,94980.41
2022-11-17T16:34:13.300Z,94977.25
2022-11-17T16:36:39.584Z,94975.06
2022-11-17T16:39:05.888Z,94978.06
2022-11-17T16:41:32.227Z,95002.28
2022-11-17T16:43:58.547Z,94976.66
2022-11-17T16:46:24.854Z,94991.84
2022-11-17T16:48:51.140Z,95009.44
2022-11-17T16:51:17.394Z,95006.91
2022-11-17T16:53:43.680Z,95006.91
2022-11-17T16:56:09.940Z,95006.28
2022-11-17T16:58:36.215Z,95017.16
2022-11-17T17:01:02.483Z,95007.06
2022-11-17T17:03:28.742Z,95013.38
2022-11-17T17:05:55.011Z,95020.19
2022-11-17T17:08:21.280Z,95031.44
2022-11-17T17:10:47.527Z,95039.97
2022-11-17T17:13:13.794Z,95054.88
2022-11-17T17:15:40.087Z,95058.97
2022-11-17T17:18:06.351Z,95054.38
2022-11-17T17:20:32.624Z,95048.50
2022-11-17T17:23:02.900Z,95067.19
2022-11-17T17:25:29.496Z,95066.88
2022-11-17T17:27:55.755Z,95071.94
2022-11-17T17:30:22.004Z,95083.00
2022-11-17T17:32:48.267Z,95090.19
2022-11-17T17:35:14.519Z,95092.56
2022-11-17T17:37:40.762Z,95112.81
2022-11-17T17:40:07.032Z,95108.34
2022-11-17T17:42:33.307Z,95118.06
2022-11-17T17:44:59.556Z,95112.13
2022-11-17T17:47:25.831Z,95084.91
2022-11-17T17:49:52.117Z,95090.47
2022-11-17T17:52:18.358Z,95105.81
2022-11-17T17:54:44.597Z,95100.03
2022-11-17T17:57:10.867Z,95106.56
2022-11-17T17:59:37.119Z,95123.47
2022-11-17T18:02:03.363Z,95126.13
2022-11-17T18:04:29.677Z,95145.09
2022-11-17T18:06:56.003Z,95147.59
2022-11-17T18:09:22.345Z,95148.53
2022-11-17T18:11:48.588Z,95178.06
2022-11-17T18:14:14.843Z,95171.34
2022-11-17T18:16:41.154Z,95188.41
2022-11-17T18:19:07.503Z,95181.69
2022-11-17T18:21:33.788Z,95177.34
2022-11-17T18:24:00.054Z,95188.19
2022-11-17T18:26:26.318Z,95200.72
2022-11-17T18:28:52.639Z,95222.19
2022-11-17T18:31:18.943Z,95228.28
2022-11-17T18:33:45.221Z,95225.00
2022-11-17T18:36:11.493Z,95226.78
2022-11-17T18:38:37.739Z,95230.16
2022-11-17T18:41:04.022Z,95236.50
2022-11-17T18:43:30.275Z,95230.94
2022-11-17T18:45:56.535Z,95253.50
2022-11-17T18:48:22.787Z,95252.09
2022-11-17T18:51:17.706Z,95250.81
2022-11-17T18:53:35.303Z,95252.91
2022-11-17T18:56:01.565Z,95241.78
2022-11-17T18:58:27.827Z,95241.69
2022-11-17T19:00:54.162Z,95248.03
2022-11-17T19:03:20.434Z,95221.50
2022-11-17T19:05:46.711Z,95212.94
2022-11-17T19:08:12.982Z,95218.91
2022-11-17T19:10:39.266Z,95211.97
2022-11-17T19:13:05.543Z,95228.53
2022-11-17T19:15:31.804Z,95224.97
2022-11-17T19:17:58.060Z,95235.91
2022-11-17T19:20:24.321Z,95228.91
2022-11-17T19:22:50.580Z,95228.13
2022-11-17T19:25:16.854Z,95228.19
2022-11-17T19:27:43.100Z,95222.81
2022-11-17T19:30:09.352Z,95221.00
2022-11-17T19:32:35.620Z,95228.50
2022-11-17T19:35:13.632Z,95224.59
2022-11-17T19:37:42.110Z,95231.25
2022-11-17T19:40:08.403Z,95232.25
2022-11-17T19:42:34.661Z,95238.03
2022-11-17T19:45:00.957Z,95234.13
2022-11-17T19:47:27.220Z,95230.97
2022-11-17T19:49:53.482Z,95231.56
2022-11-17T19:52:19.745Z,95233.94
2022-11-17T19:54:46.027Z,95241.59
2022-11-17T19:57:12.298Z,95235.22
2022-11-17T19:59:38.551Z,95233.34
2022-11-17T20:02:04.836Z,95232.25
2022-11-17T20:04:31.093Z,95235.91
2022-11-17T20:06:57.422Z,95238.28
2022-11-17T20:09:23.715Z,95243.47
2022-11-17T20:11:50.088Z,95241.22
2022-11-17T20:14:16.373Z,95239.31
2022-11-17T20:16:42.624Z,95238.13
2022-11-17T20:19:08.892Z,95248.84
2022-11-17T20:21:35.171Z,95245.09
2022-11-17T20:24:01.418Z,95243.69
2022-11-17T20:26:27.717Z,95245.09
2022-11-17T20:28:54.018Z,95238.44
2022-11-17T20:31:20.295Z,95241.03
2022-11-17T20:33:46.562Z,95243.72
2022-11-17T20:36:12.838Z,95241.25
2022-11-17T20:38:39.123Z,95247.94
2022-11-17T20:41:05.407Z,95251.00
2022-11-17T20:43:31.677Z,95249.41
2022-11-17T20:45:58.065Z,95247.75
2022-11-17T20:48:24.343Z,95251.50
2022-11-17T20:50:50.664Z,95251.31
2022-11-17T20:53:18.191Z,95244.66
2022-11-17T20:55:44.463Z,95243.06
2022-11-17T20:58:10.732Z,95235.03
2022-11-17T21:00:37.011Z,95240.41
2022-11-17T21:03:03.303Z,95238.69
2022-11-17T21:05:29.580Z,95228.78
2022-11-17T21:07:55.860Z,95236.72
2022-11-17T21:10:22.136Z,95227.69
2022-11-17T21:12:48.394Z,95215.97
2022-11-17T21:15:14.677Z,95220.91
2022-11-17T21:17:40.990Z,95215.03
2022-11-17T21:20:07.280Z,95206.34
2022-11-17T21:22:33.532Z,95201.63
2022-11-17T21:24:59.808Z,95197.38
2022-11-17T21:27:26.079Z,95204.91
2022-11-17T21:29:52.342Z,95224.09
2022-11-17T21:32:18.597Z,95210.06
2022-11-17T21:34:49.661Z,95215.34
2022-11-17T21:37:16.191Z,95225.28
2022-11-17T21:39:42.686Z,95217.72
2022-11-17T21:42:08.952Z,95223.78
2022-11-17T21:44:35.324Z,95225.28
2022-11-17T21:47:01.623Z,95212.75
2022-11-17T21:49:27.901Z,95216.47
2022-11-17T21:51:54.181Z,95214.56
2022-11-17T21:54:20.466Z,95215.38
2022-11-17T21:56:46.771Z,95211.09
2022-11-17T21:59:13.056Z,95211.59
2022-11-17T22:01:39.543Z,95196.59
2022-11-17T22:04:05.844Z,95221.81
2022-11-17T22:06:32.129Z,95225.09
2022-11-17T22:08:58.400Z,95227.69
2022-11-17T22:11:24.652Z,95221.72
2022-11-17T22:13:50.926Z,95224.09
2022-11-17T22:16:17.183Z,95225.69
2022-11-17T22:18:43.469Z,95219.44
2022-11-17T22:21:09.823Z,95222.41
2022-11-17T22:23:36.098Z,95214.06
2022-11-17T22:26:02.378Z,95216.75
2022-11-17T22:28:28.631Z,95205.22
2022-11-17T22:30:55.094Z,95196.69
2022-11-17T22:33:21.384Z,95190.72
2022-11-17T22:35:47.658Z,95194.00
2022-11-17T22:38:13.911Z,95208.69
2022-11-17T22:40:40.159Z,95218.63
2022-11-17T22:43:11.770Z,95230.47
2022-11-17T22:45:40.860Z,95235.03
2022-11-17T22:48:07.126Z,95238.13
2022-11-17T22:50:33.389Z,95219.16
2022-11-17T22:52:59.662Z,95231.97
2022-11-17T22:55:25.922Z,95227.97
2022-11-17T22:57:52.187Z,95240.31
2022-11-17T23:00:18.458Z,95251.09
2022-11-17T23:02:44.708Z,95261.13
2022-11-17T23:05:10.956Z,95270.84
2022-11-17T23:07:37.279Z,95275.31
2022-11-17T23:10:03.571Z,95270.56
2022-11-17T23:12:29.819Z,95289.00
2022-11-17T23:14:56.070Z,95284.34
2022-11-17T23:17:22.323Z,95296.44
2022-11-17T23:19:48.592Z,95307.63
2022-11-17T23:22:14.883Z,95315.13
2022-11-17T23:24:41.158Z,95336.19
2022-11-17T23:27:07.437Z,95315.78
2022-11-17T23:29:33.699Z,95338.94
2022-11-17T23:31:59.986Z,95343.22
2022-11-17T23:34:26.243Z,95345.81
2022-11-17T23:36:52.496Z,95362.78
2022-11-17T23:39:19.203Z,95350.16
2022-11-17T23:41:45.577Z,95350.94
2022-11-17T23:44:11.830Z,95345.25
2022-11-17T23:46:38.080Z,95342.50
2022-11-17T23:49:04.351Z,95326.22
2022-11-17T23:51:30.621Z,95337.94
2022-11-17T23:53:56.888Z,95320.78
2022-11-17T23:56:23.139Z,95322.31
2022-11-17T23:58:49.395Z,95315.16
